Bradley, Illinois
Current Conditions -  °F | °C
As of 3:55 AM on Tuesday 21 Oct 2014 (Local Time) from KIKK Reporting Station
Broken Clouds Broken Clouds  
Wind Chill: 48°   Ceiling: 5000
Heat Index: 48°   Visibility: 10mi
Dew Point: 43°   Wind: 3mph
Humidity: 84%   Direction: 300°WNW
Pressure: 30.03"   Gusts: NA
Location:  41.14°N, 87.86°W
Report Text: KIKK 210855Z AUTO 30003KT 10SM BKN050 09/06 A3003 RMK AO2 T00890063
Loading
Personal Weather Stations






























Interactive Weather Map
Tropical Storm Tracking
New forecast layout! Learn more

10-Day Weather Forecast

Advertisements
Track Severe Weather on mobile